Serafin Enoss Bertaso Airport

SBCH · Santa Catarina, Brésil

METAR anciennes SBCH · Aéroport de Chapecó

Tu vois ci-dessous les METAR des derniers jours. Sélectionne une année pour parcourir les METAR plus anciens, à partir de l'année 2007.

15 avril 2024

Temps Code Temps Temp. Vue Base cloud Vent METAR/SPECI
05:00
V
22 °C 10 km+ - 070° 070° 6 kt METAR SBCH 150800Z 07006KT 9999 SCT030 SCT100 22/22 Q1012
00:00
V
22 °C 10 km+ - 080° 080° 8 kt METAR SBCH 150300Z 08008KT 9999 FEW020 SCT100 22/22 Q1014

14 avril 2024

Temps Code Temps Temp. Vue Base cloud Vent METAR/SPECI
23:00
V
22 °C 10 km+ - 100° 100° 6 kt METAR SBCH 150200Z 10006KT 9999 FEW020 SCT100 22/22 Q1015
22:00
V
22 °C 10 km+ - 110° 110° 7 kt METAR SBCH 150100Z 11007KT 9999 FEW020 SCT100 22/22 Q1015
21:00
V
22 °C 10 km+ - 100° 100° 5 kt METAR SBCH 150000Z 10005KT 9999 FEW020 SCT100 22/22 Q1015
20:00
V
22 °C 10 km+ - 080° 080° 5 kt METAR SBCH 142300Z 08005KT 9999 FEW020 SCT100 22/22 Q1014
19:00
V
22 °C 10 km+ 8.000 ft 110° 110° 8 kt METAR SBCH 142200Z 11008KT 9999 FEW010 BKN080 22/22 Q1014
18:00
V
23 °C 10 km+ 8.000 ft 100° 100° 8 kt METAR SBCH 142100Z 10008KT 9999 FEW010 SCT020 BKN080 23/23 Q1013
17:00
V
24 °C 10 km+ 8.000 ft 110° 110° 7 kt METAR SBCH 142000Z 11007KT 9999 FEW010 SCT020 BKN080 24/24 Q1013
16:00
V
24 °C 10 km+ 8.000 ft 110° 110° 10 kt METAR SBCH 141900Z 11010KT 9999 SCT020 BKN080 24/24 Q1013
15:00
V
25 °C 10 km+ 8.000 ft 060° 060° 6 kt METAR SBCH 141800Z 06006KT 9999 SCT020 BKN080 25/25 Q1014
14:00
V
25 °C 10 km+ 8.000 ft 040° 040° 10 kt METAR SBCH 141700Z 04010KT 9999 SCT020 BKN080 25/25 Q1014
13:00
V
24 °C 10 km+ 10.000 ft 040° 040° 8 kt METAR SBCH 141600Z 04008KT 9999 SCT020 BKN100 24/24 Q1014
12:00
V
23 °C 10 km+ 10.000 ft 060° 060° 8 kt METAR SBCH 141500Z 06008KT 9999 SCT020 FEW030TCU BKN100 23/23 Q1015
11:00
V
23 °C 8 km 10.000 ft 050° 050° 2 kt METAR SBCH 141400Z 05002KT 8000 VCSH FEW007 SCT020 FEW030TCU BKN100 23/23 Q1015
10:00
V
22 °C 10 km+ 10.000 ft 080° 080° 4 kt METAR SBCH 141300Z 08004KT 9999 FEW007 SCT020 BKN100 22/22 Q1015
09:00
M
21 °C 10 km+ 2.000 ft 090° 090° 6 kt METAR SBCH 141200Z 09006KT 9999 SCT007 BKN020 21/21 Q1015
08:00
I
21 °C 8 km 500 ft 100° 100° 8 kt METAR SBCH 141100Z 10008KT 8000 BKN005 BKN020 FEW030TCU 21/21 Q1015
07:00
M
21 °C 8 km 2.000 ft 110° 110° 8 kt METAR SBCH 141000Z 11008KT 8000 SCT005 BKN020 FEW030TCU 21/21 Q1014
06:00
M
21 °C 8 km 2.000 ft 120° 120° 8 kt METAR SBCH 140900Z 12008KT 8000 SCT005 BKN020 FEW030TCU 21/21 Q1014
05:00
M
21 °C 8 km 2.000 ft 120° 120° 12 kt METAR SBCH 140800Z 12012KT 8000 SCT005 BKN020 FEW030TCU 21/21 Q1014
00:07
V
22 °C 10 km+ - 110° 110° 7 kt METAR SBCH 140307Z 11007KT CAVOK 22/22 Q1014

13 avril 2024

Temps Code Temps Temp. Vue Base cloud Vent METAR/SPECI
23:00
V
22 °C 10 km+ - 100° 100° 6 kt METAR SBCH 140200Z 10006KT CAVOK 22/22 Q1015
22:00
V
22 °C 9 km 8.000 ft 090° 090° 6 kt METAR SBCH 140100Z 09006KT 9000 SCT015 BKN080 22/22 Q1015
20:00
M
23 °C 9 km 1.500 ft 030° 030° 5 kt METAR SBCH 132300Z 03005KT 9000 -RA BKN015 BKN080 23/23 Q1014
19:00
M
25 °C 10 km+ 2.000 ft 080° 080° 5 kt METAR SBCH 132200Z 08005KT 9999 BKN020 BKN080 25/25 Q1013
18:00
M
25 °C 10 km+ 2.000 ft 120° 120° 6 kt METAR SBCH 132100Z 12006KT 9999 BKN020 OVC080 25/25 Q1013
17:00
V
26 °C 10 km+ 8.000 ft 130° 130° 6 kt METAR SBCH 132000Z 13006KT 9999 SCT020 OVC080 26/26 Q1013
16:00
V
26 °C 10 km+ 8.000 ft 120° 120° 5 kt METAR SBCH 131900Z 12005KT 9999 SCT020 OVC080 26/25 Q1013
15:00
V
27 °C 10 km+ 8.000 ft 140° 140° 6 kt METAR SBCH 131800Z 14006KT 9999 SCT020 OVC080 27/25 Q1013
12:00
V
27 °C 10 km+ 10.000 ft 050° 050° 8 kt METAR SBCH 131500Z 05008KT 9999 SCT020 BKN100 27/23 Q1016
11:00
V
25 °C 10 km+ 10.000 ft 070° 070° 6 kt METAR SBCH 131400Z 07006KT 9999 SCT020 BKN100 25/23 Q1017
10:00
V
24 °C 10 km+ 10.000 ft 070° 070° 6 kt METAR SBCH 131300Z 07006KT 9999 SCT020 BKN100 24/22 Q1018
09:00
V
23 °C 10 km+ 10.000 ft 070° 070° 8 kt METAR SBCH 131200Z 07008KT 9999 FEW020 BKN100 23/21 Q1018
08:00
V
21 °C 10 km+ 10.000 ft 120° 120° 6 kt METAR SBCH 131100Z 12006KT 9999 FEW020 BKN100 21/21 Q1018
07:00
V
20 °C 10 km+ 10.000 ft 110° 110° 6 kt METAR SBCH 131000Z 11006KT 9999 FEW020 BKN100 20/20 Q1017
06:00
V
21 °C 10 km+ - 050° 050° 6 kt METAR SBCH 130900Z 05006KT 9999 FEW020 21/21 Q1016
05:00
V
21 °C 10 km+ - 070° 070° 6 kt METAR SBCH 130800Z 07006KT 9999 FEW020 21/21 Q1016
Signaler les modifications